createdAt,value
2022-11-26T00:01:40.105Z,3.30
2022-11-26T00:05:02.762Z,3.67
2022-11-26T00:08:35.905Z,2.80
2022-11-26T00:11:58.543Z,3.33
2022-11-26T00:15:25.301Z,3.78
2022-11-26T00:18:48.010Z,3.50
2022-11-26T00:22:28.934Z,3.63
2022-11-26T00:25:56.455Z,3.47
2022-11-26T00:29:21.122Z,3.65
2022-11-26T00:32:43.860Z,3.50
2022-11-26T00:36:26.773Z,3.10
2022-11-26T00:39:49.662Z,3.67
2022-11-26T00:43:13.019Z,3.08
2022-11-26T00:46:35.628Z,3.03
2022-11-26T00:49:58.232Z,3.22
2022-11-26T00:53:23.184Z,3.45
2022-11-26T00:56:46.243Z,2.80
2022-11-26T01:00:15.874Z,3.17
2022-11-26T01:03:42.637Z,3.13
2022-11-26T01:07:05.296Z,3.50
2022-11-26T01:10:29.341Z,3.50
2022-11-26T01:13:52.791Z,3.17
2022-11-26T01:17:15.400Z,3.78
2022-11-26T01:20:37.976Z,3.35
2022-11-26T01:24:00.560Z,3.08
2022-11-26T01:27:23.203Z,3.47
2022-11-26T01:30:46.234Z,3.92
2022-11-26T01:34:09.092Z,3.80
2022-11-26T01:37:31.670Z,3.25
2022-11-26T01:40:59.692Z,3.15
2022-11-26T01:44:23.958Z,3.20
2022-11-26T01:47:48.675Z,3.33
2022-11-26T01:51:12.510Z,3.42
2022-11-26T01:54:37.384Z,3.03
2022-11-26T01:58:00.205Z,3.08
2022-11-26T02:01:23.058Z,3.65
2022-11-26T02:05:05.980Z,2.85
2022-11-26T02:08:30.817Z,3.35
2022-11-26T02:11:53.484Z,3.50
2022-11-26T02:15:16.365Z,3.33
2022-11-26T02:18:40.643Z,2.92
2022-11-26T02:22:22.219Z,3.28
2022-11-26T02:25:47.870Z,3.40
2022-11-26T02:29:13.235Z,3.08
2022-11-26T02:33:11.096Z,3.65
2022-11-26T02:36:39.194Z,3.13
2022-11-26T02:40:01.855Z,2.58
2022-11-26T02:43:25.338Z,2.72
2022-11-26T02:46:49.420Z,3.38
2022-11-26T02:50:17.504Z,3.40
2022-11-26T02:53:40.353Z,3.10
2022-11-26T02:57:04.615Z,3.00
2022-11-26T03:00:27.329Z,3.17
2022-11-26T03:03:53.119Z,3.10
2022-11-26T03:07:16.643Z,2.53
2022-11-26T03:10:39.249Z,2.90
2022-11-26T03:14:02.069Z,2.65
2022-11-26T03:17:24.651Z,2.53
2022-11-26T03:20:49.277Z,2.45
2022-11-26T03:24:14.760Z,3.10
2022-11-26T03:27:37.436Z,2.80
2022-11-26T03:31:00.085Z,2.70
2022-11-26T03:34:22.720Z,2.70
2022-11-26T03:37:45.431Z,2.95
2022-11-26T03:41:08.041Z,2.50
2022-11-26T03:44:30.686Z,2.70
2022-11-26T03:47:53.263Z,2.20
2022-11-26T03:51:15.851Z,2.45
2022-11-26T03:54:38.671Z,2.50
2022-11-26T03:58:01.550Z,2.50
2022-11-26T04:01:24.250Z,2.67
2022-11-26T04:04:46.867Z,2.60
2022-11-26T04:08:09.508Z,2.30
2022-11-26T04:11:32.103Z,2.45
2022-11-26T04:14:54.688Z,2.20
2022-11-26T04:18:17.466Z,2.33
2022-11-26T04:21:40.040Z,2.60
2022-11-26T04:25:02.735Z,2.58
2022-11-26T04:28:25.343Z,2.20
2022-11-26T04:31:48.068Z,1.92
2022-11-26T04:35:10.761Z,2.03
2022-11-26T04:38:33.407Z,2.30
2022-11-26T04:41:56.029Z,2.25
2022-11-26T04:45:18.753Z,2.38
2022-11-26T04:48:41.452Z,2.30
2022-11-26T04:52:04.119Z,1.85
2022-11-26T04:55:26.737Z,2.38
2022-11-26T04:58:49.348Z,2.20
2022-11-26T05:02:11.906Z,2.08
2022-11-26T05:05:34.487Z,2.45
2022-11-26T05:08:57.050Z,2.20
2022-11-26T05:12:19.696Z,2.45
2022-11-26T05:15:42.265Z,2.33
2022-11-26T05:19:04.867Z,2.08
2022-11-26T05:22:27.590Z,1.88
2022-11-26T05:25:50.936Z,1.75
2022-11-26T05:29:13.488Z,1.92
2022-11-26T05:32:36.063Z,1.58
2022-11-26T05:35:58.685Z,1.90
2022-11-26T05:39:22.056Z,1.45
2022-11-26T05:42:44.638Z,1.80
2022-11-26T05:46:07.963Z,1.77
2022-11-26T05:49:30.588Z,2.10
2022-11-26T05:52:53.208Z,1.98
2022-11-26T05:56:15.747Z,1.85
2022-11-26T05:59:38.428Z,1.70
2022-11-26T06:03:01.110Z,1.67
2022-11-26T06:06:24.480Z,1.63
2022-11-26T06:09:47.059Z,1.67
2022-11-26T06:13:09.696Z,2.00
2022-11-26T06:16:32.463Z,1.40
2022-11-26T06:19:55.072Z,1.95
2022-11-26T06:23:17.637Z,1.58
2022-11-26T06:26:40.272Z,1.30
2022-11-26T06:30:04.819Z,2.00
2022-11-26T06:33:27.455Z,1.48
2022-11-26T06:36:50.006Z,1.50
2022-11-26T06:40:16.809Z,1.40
2022-11-26T06:43:39.339Z,1.50
2022-11-26T06:47:01.952Z,1.50
2022-11-26T06:50:24.640Z,1.63
2022-11-26T06:53:47.353Z,1.50
2022-11-26T06:57:09.931Z,1.55
2022-11-26T07:00:32.537Z,1.25
2022-11-26T07:03:55.351Z,1.40
2022-11-26T07:07:18.091Z,1.50
2022-11-26T07:10:44.823Z,1.50
2022-11-26T07:14:10.211Z,1.73
2022-11-26T07:17:32.790Z,1.25
2022-11-26T07:20:55.363Z,1.38
2022-11-26T07:24:18.045Z,1.40
2022-11-26T07:27:40.985Z,1.60
2022-11-26T07:31:05.002Z,1.25
2022-11-26T07:34:27.607Z,1.60
2022-11-26T07:37:50.197Z,1.30
2022-11-26T07:41:13.848Z,1.42
2022-11-26T07:44:36.593Z,1.35
2022-11-26T07:47:59.518Z,1.48
2022-11-26T07:51:26.571Z,1.27
2022-11-26T07:54:49.176Z,1.63
2022-11-26T07:58:11.773Z,1.02
2022-11-26T08:01:34.568Z,1.48
2022-11-26T08:04:57.242Z,1.67
2022-11-26T08:08:19.861Z,1.35
2022-11-26T08:11:42.598Z,1.63
2022-11-26T08:15:05.338Z,1.40
2022-11-26T08:18:27.866Z,1.67
2022-11-26T08:21:50.453Z,1.40
2022-11-26T08:25:13.036Z,1.52
2022-11-26T08:28:35.726Z,1.45
2022-11-26T08:31:58.451Z,1.23
2022-11-26T08:35:21.140Z,1.42
2022-11-26T08:38:43.909Z,1.13
2022-11-26T08:42:06.786Z,1.20
2022-11-26T08:45:29.435Z,1.10
2022-11-26T08:48:52.116Z,1.17
2022-11-26T08:52:14.831Z,1.30
2022-11-26T08:55:59.319Z,1.10
2022-11-26T08:59:22.874Z,1.45
2022-11-26T09:02:45.480Z,1.45
2022-11-26T09:06:08.923Z,1.60
2022-11-26T09:09:31.557Z,1.23
2022-11-26T09:12:54.172Z,1.42
2022-11-26T09:16:16.899Z,1.27
2022-11-26T09:19:39.539Z,1.30
2022-11-26T09:23:02.154Z,1.10
2022-11-26T09:26:25.700Z,1.40
2022-11-26T09:29:48.318Z,1.02
2022-11-26T09:33:10.831Z,1.48
2022-11-26T09:36:33.524Z,1.05
2022-11-26T09:39:56.119Z,2.13
2022-11-26T09:43:36.471Z,2.08
2022-11-26T09:47:11.885Z,1.65
2022-11-26T09:50:38.542Z,1.73
2022-11-26T09:54:02.441Z,1.48
2022-11-26T09:57:54.349Z,1.50
2022-11-26T10:01:22.872Z,1.88
2022-11-26T10:04:46.976Z,1.52
2022-11-26T10:08:31.821Z,1.83
2022-11-26T10:12:26.137Z,1.48
2022-11-26T10:15:58.316Z,1.45
2022-11-26T10:19:34.978Z,1.65
2022-11-26T10:23:14.325Z,1.60
2022-11-26T10:26:39.898Z,1.40
2022-11-26T10:30:17.871Z,1.55
2022-11-26T10:34:04.881Z,1.63
2022-11-26T10:37:28.727Z,1.88
2022-11-26T10:40:50.897Z,1.70
2022-11-26T10:44:34.041Z,1.55
2022-11-26T10:48:14.580Z,1.90
2022-11-26T10:51:37.664Z,1.88
2022-11-26T10:55:20.901Z,1.60
2022-11-26T10:58:45.272Z,1.30
2022-11-26T11:02:22.985Z,1.87
2022-11-26T11:05:45.854Z,1.73
2022-11-26T11:09:26.426Z,1.40
2022-11-26T11:13:00.846Z,1.50
2022-11-26T11:16:27.287Z,1.45
2022-11-26T11:19:49.556Z,1.48
2022-11-26T11:23:11.685Z,1.48
2022-11-26T11:26:45.439Z,1.45
2022-11-26T11:30:21.763Z,1.30
2022-11-26T11:33:44.328Z,1.60
2022-11-26T11:37:16.623Z,1.30
2022-11-26T11:40:42.275Z,1.55
2022-11-26T11:44:36.810Z,1.40
2022-11-26T11:48:11.966Z,2.03
2022-11-26T11:51:40.097Z,1.00
2022-11-26T11:55:05.375Z,1.38
2022-11-26T12:02:47.626Z,1.60
2022-11-26T12:06:19.667Z,1.35
2022-11-26T12:10:03.680Z,1.30
2022-11-26T12:13:26.958Z,3.05
2022-11-26T12:16:55.588Z,8.93
2022-11-26T12:20:49.278Z,13.80
2022-11-26T12:24:24.818Z,11.65
2022-11-26T12:31:47.403Z,9.70
2022-11-26T12:35:38.623Z,9.23
2022-11-26T12:39:04.087Z,9.10
2022-11-26T12:42:46.593Z,8.60
2022-11-26T12:46:25.112Z,7.85
2022-11-26T12:50:15.673Z,8.07
2022-11-26T12:54:03.568Z,7.53
2022-11-26T12:57:58.075Z,6.57
2022-11-26T13:01:20.684Z,6.43
2022-11-26T13:04:42.907Z,6.68
2022-11-26T13:08:42.321Z,6.07
2022-11-26T13:12:14.338Z,5.57
2022-11-26T13:15:43.197Z,6.00
2022-11-26T13:19:18.442Z,5.07
2022-11-26T13:23:15.189Z,4.78
2022-11-26T13:27:01.150Z,4.50
2022-11-26T13:31:05.368Z,4.72
2022-11-26T13:34:40.715Z,4.18
2022-11-26T13:41:50.304Z,4.38
2022-11-26T13:45:24.490Z,4.03
2022-11-26T13:49:00.634Z,4.63
2022-11-26T13:52:30.592Z,4.13
2022-11-26T13:55:59.334Z,4.00
2022-11-26T13:59:28.321Z,4.47
2022-11-26T14:02:51.016Z,3.50
2022-11-26T14:06:14.571Z,3.75
2022-11-26T14:09:43.011Z,3.40
2022-11-26T14:13:07.878Z,3.70
2022-11-26T14:17:02.302Z,3.50
2022-11-26T14:20:24.843Z,3.45
2022-11-26T14:23:52.073Z,3.38
2022-11-26T14:27:21.988Z,3.47
2022-11-26T14:30:44.238Z,3.45
2022-11-26T14:34:18.630Z,3.35
2022-11-26T14:37:52.532Z,3.45
2022-11-26T14:41:15.899Z,3.05
2022-11-26T14:44:38.427Z,3.28
2022-11-26T14:48:03.607Z,2.75
2022-11-26T14:51:26.642Z,2.60
2022-11-26T14:54:52.297Z,2.80
2022-11-26T14:58:24.777Z,2.40
2022-11-26T15:01:47.111Z,2.70
2022-11-26T15:05:24.843Z,2.83
2022-11-26T15:08:47.096Z,2.75
2022-11-26T15:12:16.187Z,2.45
2022-11-26T15:15:49.735Z,2.63
2022-11-26T15:19:15.467Z,2.30
2022-11-26T15:22:44.405Z,2.90
2022-11-26T15:26:06.772Z,2.97
2022-11-26T15:29:33.776Z,2.35
2022-11-26T15:33:15.971Z,2.75
2022-11-26T15:36:38.455Z,2.10
2022-11-26T15:40:20.759Z,2.30
2022-11-26T15:43:51.757Z,2.60
2022-11-26T15:47:20.660Z,2.38
2022-11-26T15:50:49.809Z,2.03
2022-11-26T15:54:56.661Z,2.38
2022-11-26T15:58:29.776Z,2.45
2022-11-26T16:05:29.561Z,2.42
2022-11-26T16:09:02.415Z,2.15
2022-11-26T16:12:33.036Z,1.85
2022-11-26T16:16:04.331Z,2.10
2022-11-26T16:19:29.503Z,2.45
2022-11-26T16:22:54.890Z,1.67
2022-11-26T16:29:41.604Z,2.03
2022-11-26T16:33:04.669Z,2.55
2022-11-26T16:36:33.230Z,2.20
2022-11-26T16:40:04.267Z,2.72
2022-11-26T16:43:26.475Z,2.20
2022-11-26T16:46:51.988Z,2.15
2022-11-26T16:50:18.765Z,2.40
2022-11-26T16:53:40.977Z,2.13
2022-11-26T16:57:03.300Z,1.75
2022-11-26T17:00:27.110Z,1.63
2022-11-26T17:03:49.377Z,1.77
2022-11-26T17:07:24.922Z,1.88
2022-11-26T17:14:11.246Z,2.22
2022-11-26T17:17:33.557Z,2.22
2022-11-26T17:20:55.819Z,1.85
2022-11-26T17:24:22.898Z,1.70
2022-11-26T17:27:47.768Z,1.80
2022-11-26T17:31:10.051Z,1.92
2022-11-26T17:34:32.275Z,1.85
2022-11-26T17:37:54.506Z,1.63
2022-11-26T17:41:16.770Z,1.75
2022-11-26T17:44:38.966Z,1.60
2022-11-26T17:48:01.284Z,1.73
2022-11-26T17:51:23.613Z,1.58
2022-11-26T17:54:46.480Z,1.52
2022-11-26T17:58:11.392Z,1.83
2022-11-26T18:01:33.752Z,1.60
2022-11-26T18:04:56.075Z,1.75
2022-11-26T18:08:19.151Z,1.80
2022-11-26T18:11:50.353Z,1.92
2022-11-26T18:15:21.440Z,1.40
2022-11-26T18:18:43.768Z,1.17
2022-11-26T18:22:06.468Z,1.67
2022-11-26T18:25:29.138Z,1.23
2022-11-26T18:28:51.309Z,1.27
2022-11-26T18:32:13.923Z,1.58
2022-11-26T18:35:36.110Z,1.58
2022-11-26T18:38:58.329Z,1.65
2022-11-26T18:42:37.514Z,1.80
2022-11-26T18:46:05.170Z,1.38
2022-11-26T18:49:27.540Z,1.23
2022-11-26T18:52:49.757Z,1.63
2022-11-26T18:56:17.501Z,1.83
2022-11-26T18:59:40.183Z,1.33
2022-11-26T19:03:02.450Z,1.90
2022-11-26T19:06:28.127Z,1.23
2022-11-26T19:09:50.356Z,1.30
2022-11-26T19:13:12.688Z,1.70
2022-11-26T19:16:35.055Z,1.42
2022-11-26T19:19:57.301Z,1.25
2022-11-26T19:23:24.284Z,1.63
2022-11-26T19:26:46.619Z,1.50
2022-11-26T19:30:09.405Z,1.30
2022-11-26T19:33:32.427Z,1.70
2022-11-26T19:36:57.592Z,1.20
2022-11-26T19:43:43.032Z,1.48
2022-11-26T19:47:05.176Z,1.70
2022-11-26T19:50:27.369Z,1.60
2022-11-26T19:53:55.627Z,2.08
2022-11-26T19:57:18.300Z,2.00
2022-11-26T20:00:42.851Z,1.27
2022-11-26T20:04:07.905Z,1.73
2022-11-26T20:07:30.178Z,1.63
2022-11-26T20:10:52.395Z,2.00
2022-11-26T20:14:15.372Z,2.58
2022-11-26T20:17:37.562Z,1.80
2022-11-26T20:21:01.600Z,1.83
2022-11-26T20:24:23.788Z,2.05
2022-11-26T20:27:46.240Z,1.55
2022-11-26T20:31:08.557Z,1.77
2022-11-26T20:34:33.595Z,1.60
2022-11-26T20:37:55.775Z,2.00
2022-11-26T20:41:18.012Z,2.17
2022-11-26T20:44:40.423Z,1.67
2022-11-26T20:48:02.731Z,1.65
2022-11-26T20:51:25.376Z,2.20
2022-11-26T20:54:53.336Z,1.52
2022-11-26T20:58:15.884Z,1.73
2022-11-26T21:01:38.767Z,1.38
2022-11-26T21:05:01.068Z,1.17
2022-11-26T21:08:23.477Z,1.70
2022-11-26T21:11:45.681Z,1.52
2022-11-26T21:15:08.453Z,1.73
2022-11-26T21:18:30.815Z,1.35
2022-11-26T21:21:53.035Z,1.90
2022-11-26T21:25:15.494Z,1.58
2022-11-26T21:28:38.324Z,1.48
2022-11-26T21:32:00.546Z,1.33
2022-11-26T21:35:22.849Z,1.65
2022-11-26T21:38:48.829Z,1.80
2022-11-26T21:42:11.202Z,1.52
2022-11-26T21:45:33.408Z,1.40
2022-11-26T21:48:57.201Z,1.80
2022-11-26T21:52:19.363Z,1.77
2022-11-26T21:55:41.611Z,1.52
2022-11-26T21:59:03.928Z,1.63
2022-11-26T22:02:26.242Z,1.45
2022-11-26T22:05:48.594Z,1.52
2022-11-26T22:09:11.863Z,1.50
2022-11-26T22:12:34.072Z,1.40
2022-11-26T22:15:56.440Z,1.30
2022-11-26T22:19:19.052Z,1.40
2022-11-26T22:22:41.257Z,1.48
2022-11-26T22:26:04.127Z,1.20
2022-11-26T22:29:26.410Z,1.58
2022-11-26T22:32:48.681Z,1.40
2022-11-26T22:36:11.095Z,1.15
2022-11-26T22:39:33.252Z,1.83
2022-11-26T22:42:55.518Z,1.42
2022-11-26T22:46:19.954Z,1.60
2022-11-26T22:49:43.748Z,1.65
2022-11-26T22:53:06.672Z,1.60
2022-11-26T22:56:29.729Z,1.60
2022-11-26T22:59:51.914Z,1.42
2022-11-26T23:03:14.709Z,1.60
2022-11-26T23:06:37.922Z,1.92
2022-11-26T23:10:00.142Z,1.60
2022-11-26T23:13:22.379Z,1.40
2022-11-26T23:16:44.661Z,1.67
2022-11-26T23:20:07.600Z,1.52
2022-11-26T23:23:29.857Z,1.75
2022-11-26T23:26:52.113Z,1.60
2022-11-26T23:30:14.570Z,1.75
2022-11-26T23:33:36.857Z,1.85
2022-11-26T23:36:58.997Z,1.50
2022-11-26T23:40:21.216Z,1.48
2022-11-26T23:43:43.835Z,1.77
2022-11-26T23:47:06.059Z,1.50
2022-11-26T23:50:28.364Z,1.27
2022-11-26T23:53:51.516Z,1.30
2022-11-26T23:57:15.287Z,1.38
